createdAt,value
2022-12-12T00:01:51.758Z,62.17
2022-12-12T00:04:37.669Z,66.87
2022-12-12T00:07:22.911Z,66.80
2022-12-12T00:10:08.890Z,70.43
2022-12-12T00:12:54.069Z,72.50
2022-12-12T00:15:39.799Z,68.57
2022-12-12T00:18:25.115Z,65.77
2022-12-12T00:21:22.209Z,71.33
2022-12-12T00:24:07.713Z,68.63
2022-12-12T00:26:52.789Z,70.17
2022-12-12T00:29:38.263Z,68.27
2022-12-12T00:32:23.792Z,64.00
2022-12-12T00:35:09.745Z,64.47
2022-12-12T00:37:55.106Z,64.73
2022-12-12T00:40:40.616Z,62.67
2022-12-12T00:43:26.700Z,65.83
2022-12-12T00:46:14.871Z,67.23
2022-12-12T00:49:00.220Z,69.50
2022-12-12T00:51:45.477Z,65.53
2022-12-12T00:54:30.818Z,64.13
2022-12-12T00:57:16.136Z,62.67
2022-12-12T01:00:01.652Z,68.20
2022-12-12T01:02:48.154Z,70.53
2022-12-12T01:05:33.649Z,68.47
2022-12-12T01:08:18.806Z,68.77
2022-12-12T01:11:05.399Z,77.37
2022-12-12T01:13:52.305Z,72.50
2022-12-12T01:16:37.623Z,67.43
2022-12-12T01:19:23.113Z,73.03
2022-12-12T01:22:08.235Z,69.87
2022-12-12T01:24:53.274Z,64.80
2022-12-12T01:27:38.607Z,62.07
2022-12-12T01:30:24.040Z,60.80
2022-12-12T01:33:09.309Z,59.97
2022-12-12T01:35:54.673Z,62.67
2022-12-12T01:38:39.671Z,65.30
2022-12-12T01:41:25.125Z,62.73
2022-12-12T01:44:55.633Z,62.53
2022-12-12T01:47:40.984Z,63.77
2022-12-12T01:50:28.725Z,61.83
2022-12-12T01:53:17.758Z,64.97
2022-12-12T01:56:08.763Z,65.17
2022-12-12T01:58:55.379Z,65.60
2022-12-12T02:01:40.994Z,63.03
2022-12-12T02:04:27.188Z,63.87
2022-12-12T02:07:12.427Z,66.50
2022-12-12T02:09:57.572Z,65.13
2022-12-12T02:12:43.012Z,69.73
2022-12-12T02:15:35.349Z,61.03
2022-12-12T02:18:36.274Z,62.30
2022-12-12T02:21:35.309Z,63.77
2022-12-12T02:24:48.968Z,63.80
2022-12-12T02:27:48.047Z,67.07
2022-12-12T02:30:58.413Z,72.37
2022-12-12T02:34:06.585Z,65.13
2022-12-12T02:37:07.106Z,60.57
2022-12-12T02:40:11.927Z,62.50
2022-12-12T02:43:06.613Z,64.37
2022-12-12T02:45:59.514Z,69.17
2022-12-12T02:48:59.282Z,63.80
2022-12-12T02:51:45.901Z,66.63
2022-12-12T02:54:31.277Z,62.40
2022-12-12T02:57:21.959Z,67.53
2022-12-12T03:00:17.357Z,63.37
2022-12-12T03:03:05.484Z,65.47
2022-12-12T03:05:56.884Z,65.73
2022-12-12T03:08:58.506Z,65.20
2022-12-12T03:12:08.735Z,68.63
2022-12-12T03:15:02.449Z,67.03
2022-12-12T03:18:13.798Z,69.47
2022-12-12T03:21:07.684Z,68.57
2022-12-12T03:23:56.775Z,63.50
2022-12-12T03:26:52.408Z,70.90
2022-12-12T03:29:48.176Z,63.80
2022-12-12T03:32:45.448Z,62.37
2022-12-12T03:35:40.197Z,65.73
2022-12-12T03:38:31.329Z,69.03
2022-12-12T03:41:20.682Z,65.37
2022-12-12T03:44:38.179Z,65.47
2022-12-12T03:47:38.588Z,75.13
2022-12-12T03:50:52.385Z,65.20
2022-12-12T03:53:45.307Z,68.80
2022-12-12T03:56:36.101Z,65.23
2022-12-12T03:59:29.367Z,66.73
2022-12-12T04:02:21.828Z,71.17
2022-12-12T04:05:21.662Z,70.00
2022-12-12T04:08:13.018Z,69.70
2022-12-12T04:11:06.376Z,65.40
2022-12-12T04:14:28.137Z,64.03
2022-12-12T04:17:18.379Z,69.80
2022-12-12T04:20:16.039Z,66.20
2022-12-12T04:23:15.603Z,62.93
2022-12-12T04:26:16.417Z,62.97
2022-12-12T04:29:15.161Z,65.80
2022-12-12T04:32:15.291Z,61.47
2022-12-12T04:35:23.833Z,64.13
2022-12-12T04:38:16.009Z,63.43
2022-12-12T04:41:03.872Z,65.23
2022-12-12T04:43:50.895Z,66.77
2022-12-12T04:46:38.186Z,63.33
2022-12-12T04:49:28.204Z,64.23
2022-12-12T04:52:16.547Z,65.67
2022-12-12T04:55:05.396Z,60.90
2022-12-12T04:57:53.801Z,62.77
2022-12-12T05:01:07.416Z,62.97
2022-12-12T05:04:00.847Z,65.70
2022-12-12T05:06:50.523Z,66.43
2022-12-12T05:09:35.998Z,64.40
2022-12-12T05:12:47.979Z,59.90
2022-12-12T05:15:33.176Z,61.00
2022-12-12T05:18:19.445Z,64.57
2022-12-12T05:21:04.730Z,66.43
2022-12-12T05:23:50.215Z,65.00
2022-12-12T05:26:39.534Z,60.73
2022-12-12T05:29:24.744Z,63.83
2022-12-12T05:32:09.560Z,58.37
2022-12-12T05:34:57.299Z,61.30
2022-12-12T05:37:45.484Z,63.47
2022-12-12T05:40:34.929Z,62.50
2022-12-12T05:43:20.433Z,64.60
2022-12-12T05:46:06.266Z,62.20
2022-12-12T05:48:51.278Z,63.73
2022-12-12T05:51:36.716Z,64.23
2022-12-12T05:54:23.587Z,64.63
2022-12-12T05:57:08.954Z,63.63
2022-12-12T05:59:54.143Z,63.57
2022-12-12T06:02:39.027Z,65.13
2022-12-12T06:05:24.450Z,65.47
2022-12-12T06:08:09.499Z,61.40
2022-12-12T06:10:54.984Z,59.60
2022-12-12T06:13:44.564Z,57.30
2022-12-12T06:16:30.033Z,59.43
2022-12-12T06:19:15.324Z,62.67
2022-12-12T06:22:00.731Z,63.03
2022-12-12T06:24:46.404Z,61.30
2022-12-12T06:27:34.667Z,60.80
2022-12-12T06:30:20.087Z,61.63
2022-12-12T06:33:05.296Z,59.00
2022-12-12T06:36:10.497Z,61.97
2022-12-12T06:38:58.445Z,64.33
2022-12-12T06:41:44.286Z,67.17
2022-12-12T06:44:29.877Z,67.37
2022-12-12T06:47:15.122Z,60.83
2022-12-12T06:50:00.358Z,64.53
2022-12-12T06:52:45.846Z,62.33
2022-12-12T06:55:31.247Z,64.27
2022-12-12T06:58:16.465Z,61.53
2022-12-12T07:01:01.775Z,61.23
2022-12-12T07:03:48.704Z,67.07
2022-12-12T07:06:34.897Z,68.33
2022-12-12T07:09:20.584Z,64.70
2022-12-12T07:12:06.235Z,60.47
2022-12-12T07:14:51.580Z,62.30
2022-12-12T07:17:37.070Z,66.73
2022-12-12T07:20:22.476Z,60.57
2022-12-12T07:23:08.434Z,65.53
2022-12-12T07:25:53.516Z,62.60
2022-12-12T07:28:39.163Z,61.47
2022-12-12T07:31:24.548Z,65.80
2022-12-12T07:34:09.781Z,64.40
2022-12-12T07:37:00.899Z,66.30
2022-12-12T07:39:48.052Z,59.80
2022-12-12T07:42:33.661Z,62.97
2022-12-12T07:45:19.160Z,61.27
2022-12-12T07:48:04.638Z,66.43
2022-12-12T07:50:49.749Z,61.77
2022-12-12T07:53:35.097Z,63.30
2022-12-12T07:56:20.665Z,61.17
2022-12-12T07:59:05.945Z,63.17
2022-12-12T08:01:51.619Z,64.40
2022-12-12T08:04:36.805Z,61.83
2022-12-12T08:07:21.917Z,62.20
2022-12-12T08:10:08.277Z,61.13
2022-12-12T08:12:53.387Z,64.33
2022-12-12T08:15:41.872Z,62.33
2022-12-12T08:18:28.316Z,63.97
2022-12-12T08:21:21.472Z,64.60
2022-12-12T08:24:11.991Z,67.37
2022-12-12T08:26:57.300Z,62.70
2022-12-12T08:29:43.759Z,64.57
2022-12-12T08:32:28.810Z,62.03
2022-12-12T08:35:14.355Z,61.13
2022-12-12T08:37:59.739Z,61.73
2022-12-12T08:40:46.536Z,60.90
2022-12-12T08:43:32.003Z,59.87
2022-12-12T08:46:18.676Z,62.70
2022-12-12T08:49:04.744Z,59.20
2022-12-12T08:51:49.983Z,60.83
2022-12-12T08:54:36.647Z,64.53
2022-12-12T08:57:25.948Z,59.33
2022-12-12T09:00:12.013Z,58.13
2022-12-12T09:02:57.288Z,62.70
2022-12-12T09:05:46.683Z,57.40
2022-12-12T09:08:31.557Z,58.97
2022-12-12T09:11:18.020Z,55.97
2022-12-12T09:14:03.476Z,58.30
2022-12-12T09:16:48.909Z,54.40
2022-12-12T09:19:34.292Z,59.57
2022-12-12T09:22:19.275Z,59.57
2022-12-12T09:25:05.883Z,59.33
2022-12-12T09:27:53.645Z,53.43
2022-12-12T09:30:39.452Z,59.87
2022-12-12T09:33:24.889Z,57.13
2022-12-12T09:36:14.392Z,61.23
2022-12-12T09:38:59.611Z,57.47
2022-12-12T09:41:45.145Z,56.13
2022-12-12T09:44:30.096Z,54.93
2022-12-12T09:47:25.536Z,59.90
2022-12-12T09:50:34.595Z,62.67
2022-12-12T09:53:22.730Z,59.80
2022-12-12T09:56:20.375Z,58.07
2022-12-12T09:59:24.036Z,60.93
2022-12-12T10:02:31.532Z,59.23
2022-12-12T10:06:01.934Z,59.77
2022-12-12T10:09:26.325Z,56.70
2022-12-12T10:12:14.876Z,59.67
2022-12-12T10:15:06.696Z,61.40
2022-12-12T10:17:52.882Z,60.17
2022-12-12T10:20:47.196Z,57.53
2022-12-12T10:23:44.596Z,60.67
2022-12-12T10:26:33.286Z,59.40
2022-12-12T10:29:20.137Z,56.60
2022-12-12T10:32:20.754Z,59.40
2022-12-12T10:35:35.921Z,56.57
2022-12-12T10:38:53.827Z,58.63
2022-12-12T10:41:39.152Z,57.50
2022-12-12T10:45:03.766Z,59.10
2022-12-12T10:51:07.624Z,57.60
2022-12-12T10:53:53.094Z,56.83
2022-12-12T10:57:05.583Z,57.73
2022-12-12T10:59:53.089Z,57.83
2022-12-12T11:02:41.214Z,57.93
2022-12-12T11:05:34.679Z,59.37
2022-12-12T11:08:22.269Z,59.33
2022-12-12T11:11:10.493Z,62.20
2022-12-12T11:13:56.970Z,56.73
2022-12-12T11:16:43.940Z,60.50
2022-12-12T11:19:38.449Z,62.50
2022-12-12T11:22:24.314Z,58.00
2022-12-12T11:25:24.406Z,59.00
2022-12-12T11:28:20.398Z,61.20
2022-12-12T11:31:10.712Z,54.77
2022-12-12T11:34:04.184Z,59.07
2022-12-12T11:36:49.335Z,60.97
2022-12-12T11:39:42.795Z,59.60
2022-12-12T11:42:30.526Z,58.73
2022-12-12T11:45:15.856Z,60.00
2022-12-12T11:48:01.511Z,62.30
2022-12-12T11:50:46.681Z,58.67
2022-12-12T11:53:45.627Z,63.90
2022-12-12T11:56:44.756Z,64.10
2022-12-12T12:00:00.077Z,58.93
2022-12-12T12:03:03.763Z,65.80
2022-12-12T12:06:16.656Z,64.27
2022-12-12T12:09:23.313Z,62.90
2022-12-12T12:12:14.650Z,61.40
2022-12-12T12:15:25.259Z,60.83
2022-12-12T12:18:33.712Z,61.20
2022-12-12T12:21:18.736Z,62.67
2022-12-12T12:24:19.477Z,63.57
2022-12-12T12:27:23.249Z,63.53
2022-12-12T12:30:25.795Z,62.43
2022-12-12T12:33:29.421Z,62.37
2022-12-12T12:36:26.810Z,61.87
2022-12-12T12:39:41.637Z,60.60
2022-12-12T12:42:49.634Z,61.57
2022-12-12T12:45:52.668Z,64.23
2022-12-12T12:48:42.302Z,61.43
2022-12-12T12:51:29.741Z,64.43
2022-12-12T12:54:39.058Z,58.90
2022-12-12T12:57:30.169Z,66.20
2022-12-12T13:00:21.520Z,64.23
2022-12-12T13:03:17.210Z,61.40
2022-12-12T13:06:08.344Z,65.03
2022-12-12T13:08:59.347Z,61.90
2022-12-12T13:11:48.939Z,64.77
2022-12-12T13:14:43.667Z,65.13
2022-12-12T13:17:41.334Z,62.30
2022-12-12T13:20:29.058Z,61.97
2022-12-12T13:23:26.826Z,58.30
2022-12-12T13:26:30.632Z,66.23
2022-12-12T13:29:33.882Z,62.00
2022-12-12T13:32:40.888Z,62.07
2022-12-12T13:35:44.224Z,60.43
2022-12-12T13:38:32.785Z,63.03
2022-12-12T13:41:18.248Z,62.63
2022-12-12T13:44:04.479Z,65.03
2022-12-12T13:46:49.800Z,66.03
2022-12-12T13:49:53.805Z,64.00
2022-12-12T13:52:41.056Z,66.83
2022-12-12T13:55:26.675Z,63.80
2022-12-12T13:58:31.249Z,65.70
2022-12-12T14:01:31.990Z,68.17
2022-12-12T14:04:37.817Z,68.53
2022-12-12T14:07:24.428Z,72.83
2022-12-12T14:10:24.920Z,71.27
2022-12-12T14:13:15.848Z,69.50
2022-12-12T14:16:14.647Z,71.17
2022-12-12T14:19:04.496Z,69.77
2022-12-12T14:21:49.745Z,72.23
2022-12-12T14:24:35.118Z,68.03
2022-12-12T14:27:49.045Z,68.67
2022-12-12T14:30:44.405Z,69.30
2022-12-12T14:33:44.879Z,67.27
2022-12-12T14:37:07.020Z,73.60
2022-12-12T14:40:13.127Z,74.80
2022-12-12T14:43:19.207Z,69.30
2022-12-12T14:46:17.246Z,65.10
2022-12-12T14:49:04.359Z,67.83
2022-12-12T14:51:52.057Z,67.23
2022-12-12T14:54:37.387Z,67.50
2022-12-12T14:57:24.130Z,66.43
2022-12-12T15:00:19.451Z,71.37
2022-12-12T15:03:04.845Z,66.00
2022-12-12T15:06:20.137Z,69.03
2022-12-12T15:09:19.548Z,74.83
2022-12-12T15:12:10.567Z,70.47
2022-12-12T15:14:57.002Z,73.43
2022-12-12T15:17:49.539Z,79.27
2022-12-12T15:20:35.447Z,80.00
2022-12-12T15:23:20.963Z,76.87
2022-12-12T15:26:06.349Z,77.93
2022-12-12T15:28:52.028Z,74.10
2022-12-12T15:31:37.375Z,75.53
2022-12-12T15:34:41.836Z,69.70
2022-12-12T15:37:29.563Z,75.83
2022-12-12T15:40:24.847Z,79.23
2022-12-12T15:43:19.556Z,85.13
2022-12-12T15:46:12.769Z,88.77
2022-12-12T15:48:58.273Z,93.50
2022-12-12T15:51:43.575Z,87.67
2022-12-12T15:54:28.703Z,94.10
2022-12-12T15:57:19.238Z,87.47
2022-12-12T16:00:07.404Z,82.07
2022-12-12T16:03:06.625Z,80.57
2022-12-12T16:06:00.939Z,99.50
2022-12-12T16:09:00.116Z,83.00
2022-12-12T16:11:55.182Z,83.20
2022-12-12T16:14:42.809Z,82.53
2022-12-12T16:17:28.364Z,82.77
2022-12-12T16:20:14.236Z,82.50
2022-12-12T16:23:18.281Z,83.77
2022-12-12T16:26:03.520Z,81.03
2022-12-12T16:28:48.899Z,80.43
2022-12-12T16:31:34.165Z,85.73
2022-12-12T16:34:19.807Z,88.70
2022-12-12T16:37:05.299Z,85.13
2022-12-12T16:39:50.619Z,79.77
2022-12-12T16:42:35.874Z,81.70
2022-12-12T16:45:28.188Z,77.83
2022-12-12T16:48:21.580Z,78.17
2022-12-12T16:51:10.975Z,75.27
2022-12-12T16:53:56.287Z,81.30
2022-12-12T16:56:41.557Z,79.67
2022-12-12T16:59:26.599Z,75.80
2022-12-12T17:02:23.651Z,76.10
2022-12-12T17:05:24.179Z,79.17
2022-12-12T17:08:10.728Z,81.20
2022-12-12T17:11:10.617Z,75.17
2022-12-12T17:13:56.418Z,82.10
2022-12-12T17:16:41.472Z,91.33
2022-12-12T17:19:26.624Z,91.40
2022-12-12T17:22:12.407Z,89.73
2022-12-12T17:24:57.270Z,96.43
2022-12-12T17:27:42.843Z,94.13
2022-12-12T17:30:28.134Z,94.50
2022-12-12T17:33:19.873Z,99.30
2022-12-12T17:36:06.695Z,97.67
2022-12-12T17:38:52.261Z,98.53
2022-12-12T17:41:37.474Z,87.73
2022-12-12T17:44:22.955Z,92.07
2022-12-12T17:47:08.406Z,96.17
2022-12-12T17:49:53.888Z,92.67
2022-12-12T17:52:39.300Z,104.33
2022-12-12T17:55:54.777Z,100.13
2022-12-12T17:58:32.644Z,104.80
2022-12-12T18:01:20.494Z,93.73
2022-12-12T18:04:06.565Z,98.93
2022-12-12T18:06:51.501Z,99.93
2022-12-12T18:09:37.083Z,99.97
2022-12-12T18:12:25.391Z,103.73
2022-12-12T18:15:12.533Z,97.17
2022-12-12T18:17:57.753Z,102.33
2022-12-12T18:20:42.967Z,111.80
2022-12-12T18:23:28.197Z,122.47
2022-12-12T18:26:21.652Z,113.40
2022-12-12T18:29:08.188Z,94.80
2022-12-12T18:31:53.420Z,92.77
2022-12-12T18:34:38.783Z,91.37
2022-12-12T18:37:24.078Z,91.97
2022-12-12T18:40:09.637Z,92.73
2022-12-12T18:42:55.661Z,88.00
2022-12-12T18:45:41.096Z,94.87
2022-12-12T18:48:26.476Z,87.80
2022-12-12T18:51:20.815Z,105.90
2022-12-12T18:54:12.787Z,98.03
2022-12-12T18:57:00.131Z,100.60
2022-12-12T18:59:45.759Z,110.37
2022-12-12T19:02:30.963Z,115.27
2022-12-12T19:05:16.640Z,114.23
2022-12-12T19:08:02.073Z,106.60
2022-12-12T19:10:47.265Z,105.30
2022-12-12T19:13:33.194Z,93.93
2022-12-12T19:16:19.781Z,105.43
2022-12-12T19:19:05.472Z,110.33
2022-12-12T19:21:50.530Z,119.07
2022-12-12T19:24:35.401Z,112.87
2022-12-12T19:27:21.036Z,108.23
2022-12-12T19:30:07.224Z,105.97
2022-12-12T19:32:52.233Z,95.63
2022-12-12T19:35:38.119Z,98.20
2022-12-12T19:38:24.702Z,101.50
2022-12-12T19:41:11.867Z,106.63
2022-12-12T19:43:59.647Z,94.17
2022-12-12T19:46:44.976Z,94.60
2022-12-12T19:49:29.877Z,87.87
2022-12-12T19:52:15.260Z,106.60
2022-12-12T19:55:00.253Z,97.07
2022-12-12T19:57:45.672Z,103.17
2022-12-12T20:00:31.285Z,109.70
2022-12-12T20:03:16.421Z,108.33
2022-12-12T20:06:03.386Z,102.17
2022-12-12T20:08:48.973Z,112.90
2022-12-12T20:11:34.037Z,103.27
2022-12-12T20:14:22.102Z,102.07
2022-12-12T20:17:07.008Z,97.23
2022-12-12T20:19:51.836Z,114.07
2022-12-12T20:22:37.357Z,125.60
2022-12-12T20:25:22.812Z,102.47
2022-12-12T20:28:09.173Z,114.93
2022-12-12T20:31:03.776Z,114.07
2022-12-12T20:33:50.046Z,101.80
2022-12-12T20:36:35.993Z,106.27
2022-12-12T20:39:21.668Z,112.07
2022-12-12T20:42:06.583Z,115.70
2022-12-12T20:44:52.039Z,100.07
2022-12-12T20:47:37.684Z,118.70
2022-12-12T20:50:22.920Z,112.30
2022-12-12T20:53:08.456Z,111.33
2022-12-12T20:55:53.963Z,102.63
2022-12-12T20:58:39.959Z,101.70
2022-12-12T21:01:31.180Z,98.23
2022-12-12T21:04:16.421Z,97.33
2022-12-12T21:07:01.949Z,92.40
2022-12-12T21:09:47.313Z,92.67
2022-12-12T21:12:32.139Z,89.00
2022-12-12T21:15:18.117Z,79.10
2022-12-12T21:18:03.760Z,83.57
2022-12-12T21:20:49.017Z,82.93
2022-12-12T21:23:33.909Z,78.00
2022-12-12T21:26:28.629Z,78.60
2022-12-12T21:29:14.791Z,80.20
2022-12-12T21:32:00.110Z,74.90
2022-12-12T21:34:45.731Z,79.47
2022-12-12T21:37:33.628Z,81.10
2022-12-12T21:40:22.353Z,74.57
2022-12-12T21:43:07.748Z,78.83
2022-12-12T21:45:54.283Z,72.83
2022-12-12T21:48:40.015Z,79.63
2022-12-12T21:51:25.292Z,78.47
2022-12-12T21:54:11.743Z,80.27
2022-12-12T21:56:58.972Z,70.90
2022-12-12T21:59:44.579Z,76.23
2022-12-12T22:02:29.970Z,71.53
2022-12-12T22:05:15.223Z,81.77
2022-12-12T22:08:01.011Z,72.70
2022-12-12T22:10:46.690Z,77.90
2022-12-12T22:13:40.883Z,72.47
2022-12-12T22:16:26.203Z,68.63
2022-12-12T22:19:13.832Z,76.73
2022-12-12T22:21:59.514Z,77.70
2022-12-12T22:24:44.875Z,77.53
2022-12-12T22:27:32.949Z,74.67
2022-12-12T22:30:18.027Z,78.47
2022-12-12T22:33:03.471Z,70.87
2022-12-12T22:35:48.784Z,74.30
2022-12-12T22:38:38.213Z,82.20
2022-12-12T22:41:23.833Z,72.47
2022-12-12T22:44:13.870Z,73.73
2022-12-12T22:46:59.397Z,76.10
2022-12-12T22:49:44.872Z,76.23
2022-12-12T22:52:29.692Z,74.77
2022-12-12T22:55:15.532Z,78.60
2022-12-12T22:58:01.178Z,77.43
2022-12-12T23:00:46.190Z,75.33
2022-12-12T23:03:31.043Z,78.20
2022-12-12T23:06:25.806Z,73.70
2022-12-12T23:09:20.101Z,84.50
2022-12-12T23:12:05.368Z,79.97
2022-12-12T23:14:50.527Z,82.07
2022-12-12T23:17:36.553Z,78.57
2022-12-12T23:20:21.404Z,77.80
2022-12-12T23:23:06.440Z,82.43
2022-12-12T23:25:51.718Z,73.17
2022-12-12T23:28:37.996Z,78.27
2022-12-12T23:31:26.371Z,77.43
2022-12-12T23:34:17.846Z,78.30
2022-12-12T23:37:03.296Z,71.90
2022-12-12T23:39:50.041Z,76.40
2022-12-12T23:42:35.265Z,72.70
2022-12-12T23:45:20.660Z,78.90
2022-12-12T23:48:06.004Z,71.20
2022-12-12T23:50:51.047Z,74.37
2022-12-12T23:53:36.087Z,74.13
2022-12-12T23:56:20.979Z,69.47
2022-12-12T23:59:06.527Z,71.93
